Time;durP1;ratioP1;P1;durP2;ratioP2;P2;SDS_P1;SDS_P2;PMS_P1;PMS_P2;Temp;Humidity;BMP_temperature;BMP_pressure;BME280_temperature;BME280_humidity;BME280_pressure;Samples;Min_cycle;Max_cycle;Signal;HPM_P1;HPM_P2
2023/04/23 00:01:12;;;;;;;97.28;50.42;;;10.70;99.90;;;;;;5020824;28;20036;-93
2023/04/23 00:03:41;;;;;;;98.25;48.40;;;10.70;99.90;;;;;;5003562;28;20060;-93
2023/04/23 00:06:10;;;;;;;98.72;49.78;;;10.70;99.90;;;;;;5020282;28;20482;-94
2023/04/23 00:08:41;;;;;;;95.10;48.08;;;10.60;99.90;;;;;;5019409;28;20044;-95
2023/04/23 00:11:10;;;;;;;87.53;46.55;;;10.60;99.90;;;;;;4984160;28;20034;-94
2023/04/23 00:13:39;;;;;;;88.85;46.58;;;10.60;99.90;;;;;;4984348;28;20072;-92
2023/04/23 00:16:15;;;;;;;92.18;47.35;;;10.60;99.90;;;;;;4984214;28;20026;-89
2023/04/23 00:18:42;;;;;;;93.38;47.78;;;10.60;99.90;;;;;;5000578;28;20109;-89
2023/04/23 00:21:14;;;;;;;88.90;47.15;;;10.50;99.90;;;;;;4984071;28;20037;-89
2023/04/23 00:23:40;;;;;;;104.82;50.35;;;10.50;99.90;;;;;;4984462;28;20038;-90
2023/04/23 00:26:12;;;;;;;91.60;47.80;;;10.50;99.90;;;;;;5000825;28;20021;-91
2023/04/23 00:28:37;;;;;;;95.80;49.00;;;10.50;99.90;;;;;;4986888;28;20030;-91
2023/04/23 00:31:12;;;;;;;96.20;47.13;;;10.50;99.90;;;;;;4990358;28;20026;-90
2023/04/23 00:33:41;;;;;;;93.22;46.63;;;10.50;99.90;;;;;;5002504;28;20053;-90
2023/04/23 00:36:13;;;;;;;102.05;47.58;;;10.50;99.90;;;;;;4968357;28;20048;-90
2023/04/23 00:38:42;;;;;;;117.25;51.03;;;10.50;99.90;;;;;;4984513;28;20364;-89
2023/04/23 00:41:14;;;;;;;118.80;52.10;;;10.50;99.90;;;;;;4983797;28;20026;-89
2023/04/23 00:43:43;;;;;;;121.50;53.63;;;10.50;99.90;;;;;;4983336;28;20034;-90
2023/04/23 00:46:12;;;;;;;112.00;50.30;;;10.50;99.90;;;;;;5000106;28;20505;-91
2023/04/23 00:48:46;;;;;;;106.03;49.80;;;10.60;99.90;;;;;;4967732;28;20022;-93
2023/04/23 00:51:12;;;;;;;113.80;51.05;;;10.50;99.90;;;;;;4984700;28;20092;-94
2023/04/23 00:53:43;;;;;;;98.72;47.75;;;10.50;99.90;;;;;;4984513;28;20438;-93
2023/04/23 00:56:13;;;;;;;107.82;49.47;;;10.50;99.90;;;;;;4968003;28;20069;-94
2023/04/23 00:58:40;;;;;;;81.80;45.50;;;10.50;99.90;;;;;;4984733;28;20068;-93
2023/04/23 01:01:06;;;;;;;105.55;47.47;;;10.50;99.90;;;;;;5000333;28;20036;-95
2023/04/23 01:03:35;;;;;;;98.95;48.28;;;10.50;99.90;;;;;;4984771;28;20034;-94
2023/04/23 01:06:02;;;;;;;93.05;46.85;;;10.50;99.90;;;;;;5001576;28;20038;-90
2023/04/23 01:08:29;;;;;;;90.65;46.20;;;10.60;99.90;;;;;;5001189;28;20026;-89
2023/04/23 01:10:55;;;;;;;84.40;44.95;;;10.50;99.90;;;;;;5021272;28;20112;-89
2023/04/23 01:13:30;;;;;;;92.03;45.08;;;10.50;99.90;;;;;;4991001;28;20037;-90
2023/04/23 01:15:57;;;;;;;96.53;46.28;;;10.50;99.90;;;;;;5007125;28;20031;-90
2023/04/23 01:18:33;;;;;;;93.05;44.38;;;10.50;99.90;;;;;;5005086;28;20072;-93
2023/04/23 01:20:59;;;;;;;76.93;41.15;;;10.50;99.90;;;;;;5018370;28;20083;-89
2023/04/23 01:23:28;;;;;;;82.43;41.13;;;10.40;99.90;;;;;;5018727;28;20022;-90
2023/04/23 01:26:03;;;;;;;82.05;41.90;;;10.40;99.90;;;;;;4986377;28;20021;-89
2023/04/23 01:28:35;;;;;;;94.22;44.25;;;10.40;99.90;;;;;;4986723;28;20083;-89
2023/04/23 01:31:04;;;;;;;80.78;43.22;;;10.40;99.90;;;;;;5019465;28;20025;-89
2023/04/23 01:33:34;;;;;;;90.15;44.58;;;10.40;99.90;;;;;;5002071;28;20117;-90
2023/04/23 01:36:08;;;;;;;87.27;44.77;;;10.40;99.90;;;;;;5002488;28;20127;-89
2023/04/23 01:38:36;;;;;;;89.68;44.20;;;10.40;99.90;;;;;;5018864;28;20048;-89
2023/04/23 01:41:05;;;;;;;89.38;46.38;;;10.40;99.90;;;;;;5018500;28;20076;-94
2023/04/23 01:43:31;;;;;;;98.10;44.83;;;10.40;99.90;;;;;;4985918;28;20029;-94
2023/04/23 01:46:09;;;;;;;95.28;45.60;;;10.40;99.90;;;;;;5018824;28;20064;-94
2023/04/23 01:48:36;;;;;;;89.53;42.75;;;10.40;99.90;;;;;;5018548;28;20014;-93
2023/04/23 01:51:02;;;;;;;105.55;48.17;;;10.40;99.90;;;;;;4986714;28;20021;-94
2023/04/23 01:53:28;;;;;;;95.40;44.78;;;10.50;99.90;;;;;;5002195;28;20037;-94
2023/04/23 01:56:09;;;;;;;90.35;44.20;;;10.50;99.90;;;;;;5018404;28;20075;-93
2023/04/23 01:58:41;;;;;;;93.20;44.88;;;10.40;99.90;;;;;;5002929;28;20042;-90
2023/04/23 02:01:10;;;;;;;92.53;44.28;;;10.40;99.90;;;;;;5000062;28;20022;-89
2023/04/23 02:03:36;;;;;;;96.43;46.10;;;10.40;99.90;;;;;;4992360;28;20119;-89
2023/04/23 02:06:05;;;;;;;101.55;47.38;;;10.40;99.90;;;;;;4985716;28;20021;-90
2023/04/23 02:08:43;;;;;;;107.00;48.88;;;10.40;99.90;;;;;;4985442;28;20487;-90
2023/04/23 02:11:09;;;;;;;103.95;47.60;;;10.40;99.90;;;;;;5018081;28;20517;-89
2023/04/23 02:13:44;;;;;;;108.47;47.40;;;10.40;99.90;;;;;;5012098;28;20029;-93
2023/04/23 02:16:11;;;;;;;96.38;46.45;;;10.40;99.90;;;;;;5001786;28;20421;-92
2023/04/23 02:18:46;;;;;;;113.93;49.45;;;10.30;99.90;;;;;;5009334;28;20509;-93
2023/04/23 02:21:12;;;;;;;105.15;47.35;;;10.30;99.90;;;;;;4985623;28;20022;-94
2023/04/23 02:23:47;;;;;;;105.53;47.38;;;10.30;99.90;;;;;;5002511;28;20030;-95
2023/04/23 02:26:12;;;;;;;105.55;47.30;;;10.30;99.90;;;;;;4985744;28;20037;-93
2023/04/23 02:28:45;;;;;;;106.20;48.17;;;10.30;99.90;;;;;;5002093;28;20076;-93
2023/04/23 02:31:15;;;;;;;89.00;45.35;;;10.20;99.90;;;;;;4985748;28;20030;-92
2023/04/23 02:33:41;;;;;;;102.25;47.17;;;10.20;99.90;;;;;;5001881;28;20030;-93
2023/04/23 02:36:13;;;;;;;104.07;47.90;;;10.20;99.90;;;;;;5001923;28;20482;-90
2023/04/23 02:38:51;;;;;;;103.88;46.33;;;10.20;99.90;;;;;;5022076;28;20005;-90
2023/04/23 02:41:17;;;;;;;94.78;47.72;;;10.10;99.90;;;;;;5003192;28;20037;-91
2023/04/23 02:43:52;;;;;;;95.30;45.85;;;10.10;99.90;;;;;;5007770;28;20029;-92
2023/04/23 02:46:18;;;;;;;102.47;47.47;;;10.10;99.90;;;;;;5030912;28;20022;-95
2023/04/23 02:48:53;;;;;;;105.50;48.25;;;10.10;99.90;;;;;;4984982;28;20030;-94
2023/04/23 02:51:19;;;;;;;106.18;47.70;;;10.10;99.90;;;;;;4985498;28;20109;-92
2023/04/23 02:53:45;;;;;;;102.25;46.83;;;10.10;99.90;;;;;;5017502;28;20026;-93
2023/04/23 02:56:13;;;;;;;96.93;46.80;;;10.10;99.90;;;;;;5018219;28;20113;-94
2023/04/23 02:58:55;;;;;;;98.45;46.97;;;10.10;99.90;;;;;;5002584;28;20014;-94
2023/04/23 03:01:21;;;;;;;;;;;10.10;99.90;;;;;;5002649;28;20124;-94
2023/04/23 03:03:49;;;;;;;89.10;45.08;;;10.10;99.90;;;;;;5002229;28;19909;-94
2023/04/23 03:06:14;;;;;;;98.15;44.95;;;10.00;99.90;;;;;;4985653;28;20040;-94
2023/04/23 03:08:40;;;;;;;98.07;46.25;;;10.00;99.90;;;;;;5002288;28;20025;-93
2023/04/23 03:11:06;;;;;;;97.88;44.83;;;10.00;99.90;;;;;;4985869;28;20053;-92
2023/04/23 03:13:32;;;;;;;91.35;43.33;;;10.00;99.90;;;;;;4991328;28;20046;-93
2023/04/23 03:15:58;;;;;;;98.75;44.22;;;10.00;99.90;;;;;;5028204;28;20013;-94
2023/04/23 03:18:24;;;;;;;86.97;42.40;;;10.00;99.90;;;;;;5022153;28;20029;-92
2023/04/23 03:20:49;;;;;;;95.97;42.67;;;10.00;99.90;;;;;;4998452;28;20029;-94
2023/04/23 03:23:15;;;;;;;86.38;42.63;;;10.00;99.90;;;;;;4986229;28;20028;-94
2023/04/23 03:25:41;;;;;;;94.03;43.78;;;10.00;99.90;;;;;;5001810;28;20470;-92
2023/04/23 03:28:07;;;;;;;93.80;41.20;;;10.00;99.90;;;;;;5019956;28;20017;-94
2023/04/23 03:30:33;;;;;;;90.80;42.20;;;10.00;99.90;;;;;;4985314;28;20021;-96
2023/04/23 03:33:01;;;;;;;96.57;44.15;;;9.90;99.90;;;;;;5001460;28;20120;-94
2023/04/23 03:35:32;;;;;;;94.63;43.78;;;10.00;99.90;;;;;;5017628;28;20029;-91
2023/04/23 03:38:01;;;;;;;87.03;41.33;;;9.90;99.90;;;;;;4986312;28;20157;-90
2023/04/23 03:40:36;;;;;;;87.05;41.75;;;9.90;99.90;;;;;;4987948;28;20499;-91
2023/04/23 03:43:02;;;;;;;95.88;42.63;;;9.90;99.90;;;;;;4988247;28;20030;-92
2023/04/23 03:45:37;;;;;;;84.38;42.15;;;9.90;99.90;;;;;;4988106;28;20021;-89
2023/04/23 03:48:02;;;;;;;89.53;42.67;;;9.90;99.90;;;;;;5004563;28;20036;-89
2023/04/23 03:50:39;;;;;;;86.78;41.72;;;10.00;99.90;;;;;;4987921;28;20029;-91
2023/04/23 03:53:05;;;;;;;87.75;41.90;;;9.90;99.90;;;;;;5021427;28;20382;-94
2023/04/23 03:55:38;;;;;;;89.97;42.35;;;9.90;99.90;;;;;;5004904;28;20363;-93
2023/04/23 03:58:04;;;;;;;90.22;42.22;;;9.90;99.90;;;;;;4989329;28;20025;-93
2023/04/23 04:00:39;;;;;;;86.63;42.08;;;9.90;99.90;;;;;;5021923;28;20112;-93
2023/04/23 04:03:07;;;;;;;90.55;42.92;;;9.90;99.90;;;;;;4990037;28;20387;-95
2023/04/23 04:05:34;;;;;;;88.97;42.70;;;9.90;99.90;;;;;;5008243;28;20043;-94
2023/04/23 04:08:06;;;;;;;89.50;43.83;;;9.90;99.90;;;;;;5014752;28;20033;-92
2023/04/23 04:10:42;;;;;;;85.85;41.75;;;9.90;99.90;;;;;;4990406;28;20144;-92
2023/04/23 04:13:08;;;;;;;82.68;41.38;;;9.90;99.90;;;;;;5004612;28;20037;-91
2023/04/23 04:15:43;;;;;;;96.63;42.88;;;9.90;99.90;;;;;;5020933;28;20031;-92
2023/04/23 04:18:08;;;;;;;100.60;43.63;;;9.80;99.90;;;;;;5004189;28;20026;-91
2023/04/23 04:20:43;;;;;;;95.95;44.22;;;9.80;99.90;;;;;;4988482;28;20022;-95
2023/04/23 04:23:09;;;;;;;97.38;43.65;;;9.80;99.90;;;;;;4989032;28;20041;-93
2023/04/23 04:25:49;;;;;;;98.10;43.15;;;9.90;99.90;;;;;;5004972;28;20022;-92
2023/04/23 04:28:15;;;;;;;88.45;42.17;;;9.90;99.90;;;;;;5020699;28;20033;-92
2023/04/23 04:30:48;;;;;;;84.97;40.70;;;9.90;99.90;;;;;;4987809;28;20030;-92
2023/04/23 04:33:14;;;;;;;90.47;41.63;;;9.90;99.90;;;;;;5004112;28;20441;-92
2023/04/23 04:35:41;;;;;;;97.93;42.67;;;9.90;99.90;;;;;;5019943;28;20013;-95
2023/04/23 04:38:07;;;;;;;91.88;42.65;;;9.90;99.90;;;;;;4988489;28;20041;-95
2023/04/23 04:40:33;;;;;;;98.18;42.65;;;9.90;99.90;;;;;;4989473;28;20026;-93
2023/04/23 04:42:59;;;;;;;86.65;40.53;;;9.90;99.90;;;;;;5006117;28;20025;-90
2023/04/23 04:45:25;;;;;;;77.95;39.83;;;9.80;99.90;;;;;;5003941;28;20037;-91
2023/04/23 04:47:51;;;;;;;82.13;40.00;;;9.90;99.90;;;;;;4987272;28;20029;-89
2023/04/23 04:50:17;;;;;;;98.03;42.13;;;9.90;99.90;;;;;;4987272;28;20025;-89
2023/04/23 04:52:42;;;;;;;88.43;40.33;;;9.90;99.90;;;;;;4987417;28;20386;-90
2023/04/23 04:55:08;;;;;;;82.30;39.85;;;9.90;99.90;;;;;;5003454;28;20021;-91
2023/04/23 04:57:35;;;;;;;84.25;39.85;;;9.90;99.90;;;;;;5003014;28;20029;-91
2023/04/23 05:00:17;;;;;;;91.40;43.60;;;9.90;99.90;;;;;;5003161;28;20121;-95
2023/04/23 05:02:43;;;;;;;85.85;39.95;;;10.00;99.90;;;;;;4989579;28;20135;-94
2023/04/23 05:05:09;;;;;;;85.43;39.70;;;10.00;99.90;;;;;;4988390;28;20038;-92
2023/04/23 05:07:35;;;;;;;45.75;14.75;;;10.00;99.90;;;;;;4987614;28;20069;-92
2023/04/23 05:10:01;;;;;;;146.38;48.45;;;10.00;99.90;;;;;;4987236;28;20486;-93
2023/04/23 05:12:26;;;;;;;137.90;44.63;;;10.00;99.90;;;;;;5003328;28;20471;-94
2023/04/23 05:14:52;;;;;;;42.45;12.82;;;10.00;99.90;;;;;;4987273;28;20479;-92
2023/04/23 05:17:19;;;;;;;22.95;10.75;;;10.10;99.90;;;;;;4986331;28;20029;-89
2023/04/23 05:19:44;;;;;;;13.40;7.10;;;10.10;99.90;;;;;;5001747;28;20021;-89
2023/04/23 05:22:10;;;;;;;5.72;4.90;;;10.10;99.90;;;;;;4985845;28;20080;-90
2023/04/23 05:24:36;;;;;;;8.45;1.77;;;10.10;99.90;;;;;;5001185;28;20096;-90
2023/04/23 05:27:01;;;;;;;3.92;1.85;;;10.10;99.90;;;;;;4985551;28;20029;-90
2023/04/23 05:29:30;;;;;;;3.60;1.48;;;10.10;99.90;;;;;;4985899;28;20055;-88
2023/04/23 05:31:59;;;;;;;0.15;0.15;;;10.20;99.90;;;;;;4985851;28;20029;-89
2023/04/23 05:34:31;;;;;;;0.75;0.75;;;10.20;99.90;;;;;;4986224;28;20128;-90
2023/04/23 05:37:03;;;;;;;3.90;2.08;;;10.20;99.90;;;;;;4986118;28;20021;-89
2023/04/23 05:39:30;;;;;;;5.63;1.40;;;10.20;99.90;;;;;;5001892;28;20061;-90
2023/04/23 05:41:56;;;;;;;2.35;1.77;;;10.10;99.90;;;;;;5018902;28;20022;-91
2023/04/23 05:44:23;;;;;;;1.33;1.23;;;10.10;99.90;;;;;;5002475;28;20036;-91
2023/04/23 05:46:49;;;;;;;2.42;1.63;;;10.20;99.90;;;;;;5002213;28;20029;-90
2023/04/23 05:49:15;;;;;;;1.60;1.50;;;10.20;99.90;;;;;;4985949;28;20037;-89
2023/04/23 05:51:42;;;;;;;0.93;0.63;;;10.20;99.90;;;;;;5018728;28;20032;-89
2023/04/23 05:54:08;;;;;;;1.15;0.93;;;10.20;99.90;;;;;;5001642;28;20069;-90
2023/04/23 05:56:33;;;;;;;2.17;1.45;;;10.30;99.90;;;;;;4985983;28;20033;-90
2023/04/23 05:58:59;;;;;;;2.05;1.85;;;10.30;99.90;;;;;;5002189;28;20033;-91
2023/04/23 06:01:25;;;;;;;1.58;1.40;;;10.30;99.90;;;;;;4985795;28;20078;-90
2023/04/23 06:03:51;;;;;;;1.55;1.45;;;10.40;99.90;;;;;;4994336;28;20056;-89
2023/04/23 06:06:16;;;;;;;3.05;1.80;;;10.40;99.90;;;;;;5010202;28;20410;-90
2023/04/23 06:08:42;;;;;;;1.45;0.63;;;10.40;99.90;;;;;;4985733;28;20062;-90
2023/04/23 06:11:08;;;;;;;3.33;1.85;;;10.50;99.90;;;;;;5001363;28;20061;-90
2023/04/23 06:13:39;;;;;;;1.70;1.25;;;10.50;99.90;;;;;;4985860;28;20037;-89
2023/04/23 06:16:08;;;;;;;;;;;10.50;99.90;;;;;;5002495;28;20025;-89
2023/04/23 06:18:35;;;;;;;3.00;1.90;;;10.60;99.90;;;;;;5017834;28;19932;-90
2023/04/23 06:21:04;;;;;;;0.05;0.05;;;10.60;99.90;;;;;;5017656;28;20025;-93
2023/04/23 06:23:31;;;;;;;86.03;40.42;;;10.60;99.90;;;;;;5002443;28;20061;-93
2023/04/23 06:25:57;;;;;;;73.20;36.70;;;10.70;99.90;;;;;;4985933;28;20033;-93
2023/04/23 06:28:23;;;;;;;71.95;37.88;;;10.70;99.90;;;;;;4985650;28;20117;-93
2023/04/23 06:30:49;;;;;;;77.63;39.95;;;10.80;99.90;;;;;;5001872;28;20026;-96
2023/04/23 06:33:14;;;;;;;77.28;39.67;;;10.80;99.90;;;;;;4989902;28;20026;-91
2023/04/23 06:35:43;;;;;;;71.57;38.15;;;10.80;99.90;;;;;;4984854;28;20034;-88
2023/04/23 06:38:12;;;;;;;61.22;34.55;;;10.90;99.90;;;;;;5017703;28;20514;-90
2023/04/23 06:40:47;;;;;;;72.85;34.72;;;10.90;99.90;;;;;;5018387;28;20054;-90
2023/04/23 06:43:13;;;;;;;60.10;34.40;;;10.90;99.90;;;;;;5001536;28;20548;-90
2023/04/23 06:45:51;;;;;;;59.88;34.72;;;11.00;99.90;;;;;;5017272;28;20116;-90
2023/04/23 06:48:17;;;;;;;57.75;33.42;;;11.10;99.90;;;;;;4985799;28;20173;-90
2023/04/23 06:50:50;;;;;;;54.78;33.25;;;11.10;99.90;;;;;;5001712;28;20086;-90
2023/04/23 06:53:15;;;;;;;51.97;31.10;;;11.20;99.90;;;;;;5017772;28;20033;-90
2023/04/23 06:55:50;;;;;;;49.30;30.88;;;11.30;99.90;;;;;;5000259;28;20034;-91
2023/04/23 06:58:20;;;;;;;45.00;29.83;;;11.30;99.90;;;;;;4993782;28;20026;-93
2023/04/23 07:00:52;;;;;;;45.10;29.05;;;11.40;99.90;;;;;;4993409;28;20026;-91
2023/04/23 07:03:18;;;;;;;45.33;28.65;;;11.50;99.90;;;;;;4989985;28;20034;-92
2023/04/23 07:05:44;;;;;;;45.10;29.98;;;11.50;99.90;;;;;;5003741;28;20044;-93
2023/04/23 07:08:10;;;;;;;44.22;29.67;;;11.60;99.90;;;;;;5005953;28;20022;-93
2023/04/23 07:10:54;;;;;;;36.00;25.45;;;11.70;99.90;;;;;;4983054;28;20058;-90
2023/04/23 07:13:20;;;;;;;35.03;24.83;;;11.80;99.90;;;;;;4986013;28;20033;-94
2023/04/23 07:15:58;;;;;;;36.15;26.10;;;11.80;99.90;;;;;;4973671;28;20029;-95
2023/04/23 07:18:24;;;;;;;30.85;23.60;;;11.90;99.90;;;;;;4971978;28;20026;-94
2023/04/23 07:20:50;;;;;;;33.55;24.02;;;12.00;99.90;;;;;;4972165;28;20052;-93
2023/04/23 07:23:17;;;;;;;31.58;22.98;;;12.10;99.90;;;;;;4971362;28;20030;-92
2023/04/23 07:25:43;;;;;;;28.13;21.35;;;12.10;99.90;;;;;;5003662;28;20109;-91
2023/04/23 07:28:10;;;;;;;28.35;22.08;;;12.20;99.90;;;;;;4971902;28;20060;-91
2023/04/23 07:30:35;;;;;;;29.77;20.88;;;12.30;99.90;;;;;;4996213;28;20120;-95
2023/04/23 07:33:01;;;;;;;27.40;21.70;;;12.40;99.90;;;;;;5017931;28;20013;-91
2023/04/23 07:35:27;;;;;;;25.83;20.20;;;12.50;99.90;;;;;;5009298;28;20042;-92
2023/04/23 07:37:54;;;;;;;25.02;19.23;;;12.60;99.90;;;;;;5007517;28;20033;-92
2023/04/23 07:40:24;;;;;;;25.65;19.65;;;12.70;99.90;;;;;;5036771;28;20025;-94
2023/04/23 07:42:51;;;;;;;22.63;16.77;;;12.70;99.90;;;;;;5020171;28;20064;-92
2023/04/23 07:45:19;;;;;;;18.58;15.27;;;12.80;99.90;;;;;;5006560;28;20022;-92
2023/04/23 07:48:03;;;;;;;21.23;15.85;;;12.90;99.90;;;;;;5004600;28;20025;-93
2023/04/23 07:50:32;;;;;;;18.02;14.57;;;13.00;99.90;;;;;;4988146;28;20047;-93
2023/04/23 07:53:04;;;;;;;17.67;13.82;;;13.10;99.90;;;;;;4988315;28;20017;-93
2023/04/23 07:55:33;;;;;;;17.20;12.43;;;13.20;99.90;;;;;;5004239;28;20033;-93
2023/04/23 07:58:08;;;;;;;16.88;13.35;;;13.30;99.90;;;;;;5005311;28;20451;-94
2023/04/23 08:00:35;;;;;;;15.05;11.50;;;13.30;99.90;;;;;;5004966;28;20034;-96
2023/04/23 08:03:09;;;;;;;15.50;11.18;;;13.40;99.90;;;;;;5020479;28;20021;-89
2023/04/23 08:05:37;;;;;;;14.02;10.57;;;13.50;99.90;;;;;;5003906;28;20493;-89
2023/04/23 08:08:11;;;;;;;13.38;10.52;;;13.60;99.90;;;;;;5004258;28;20030;-90
2023/04/23 08:10:37;;;;;;;13.25;10.07;;;13.80;99.90;;;;;;5020150;28;20123;-91
2023/04/23 08:13:09;;;;;;;13.50;9.27;;;13.80;99.90;;;;;;5019979;28;20021;-90
2023/04/23 08:15:35;;;;;;;13.93;9.63;;;14.00;99.90;;;;;;5020170;28;20025;-90
2023/04/23 08:18:10;;;;;;;13.35;9.10;;;14.10;99.90;;;;;;5003394;28;20443;-90
2023/04/23 08:20:36;;;;;;;14.77;8.85;;;14.10;99.90;;;;;;5004647;28;20393;-95
2023/04/23 08:23:14;;;;;;;13.15;8.75;;;14.20;99.90;;;;;;4988710;28;20021;-94
2023/04/23 08:25:40;;;;;;;15.23;8.45;;;14.30;99.90;;;;;;5021037;28;20052;-94
2023/04/23 08:28:12;;;;;;;13.10;7.93;;;14.40;99.90;;;;;;5006261;28;20037;-94
2023/04/23 08:30:38;;;;;;;12.02;8.13;;;14.40;99.90;;;;;;5006074;28;20060;-93
2023/04/23 08:33:13;;;;;;;11.15;7.82;;;14.50;99.90;;;;;;4990269;28;20030;-95
2023/04/23 08:35:39;;;;;;;12.32;8.23;;;14.60;99.90;;;;;;5024837;28;20057;-93
2023/04/23 08:38:14;;;;;;;14.10;8.13;;;14.70;99.90;;;;;;4988582;28;20041;-94
2023/04/23 08:40:41;;;;;;;11.43;8.13;;;14.70;99.90;;;;;;5004616;28;20037;-94
2023/04/23 08:43:18;;;;;;;11.07;7.40;;;14.80;99.90;;;;;;5020898;28;20106;-95
2023/04/23 08:45:48;;;;;;;11.90;7.32;;;14.80;99.90;;;;;;5020992;28;20025;-93
2023/04/23 08:48:14;;;;;;;12.57;7.32;;;14.90;99.90;;;;;;5021237;28;20083;-93
2023/04/23 08:50:44;;;;;;;11.63;6.90;;;15.00;99.90;;;;;;5004172;28;20041;-96
2023/04/23 08:53:18;;;;;;;10.90;6.90;;;15.10;99.90;;;;;;5022228;28;20025;-95
2023/04/23 08:55:48;;;;;;;12.07;6.40;;;15.10;99.90;;;;;;5033795;28;20103;-93
2023/04/23 08:58:14;;;;;;;14.02;5.95;;;15.20;99.90;;;;;;5006389;28;20032;-95
2023/04/23 09:00:40;;;;;;;10.45;5.93;;;15.30;99.90;;;;;;5004083;28;20059;-95
2023/04/23 09:03:07;;;;;;;10.48;5.70;;;15.40;99.90;;;;;;5020570;28;20013;-94
2023/04/23 09:05:33;;;;;;;11.15;5.82;;;15.50;99.90;;;;;;5021561;28;20120;-95
2023/04/23 09:07:58;;;;;;;12.13;5.38;;;15.50;99.90;;;;;;4988908;28;20076;-94
2023/04/23 09:10:24;;;;;;;9.85;5.03;;;15.50;99.90;;;;;;5018769;28;20049;-92
2023/04/23 09:12:50;;;;;;;10.82;5.25;;;15.60;99.90;;;;;;4998163;28;20067;-91
2023/04/23 09:15:18;;;;;;;13.23;4.85;;;15.60;99.90;;;;;;4985913;28;20029;-91
2023/04/23 09:17:46;;;;;;;12.55;4.78;;;15.70;99.90;;;;;;5002636;28;20036;-90
2023/04/23 09:20:13;;;;;;;9.82;5.47;;;15.80;99.90;;;;;;5002485;28;20258;-90
2023/04/23 09:22:56;;;;;;;9.57;4.50;;;15.90;99.90;;;;;;5002435;28;20052;-91
2023/04/23 09:25:23;;;;;;;9.57;4.00;;;15.90;99.90;;;;;;5019562;28;20021;-94
2023/04/23 09:27:50;;;;;;;11.23;3.80;;;16.00;99.90;;;;;;5002899;28;20033;-90
2023/04/23 09:30:18;;;;;;;8.38;3.33;;;16.10;99.90;;;;;;5033264;28;20038;-95
2023/04/23 09:32:45;;;;;;;9.48;3.42;;;16.10;99.90;;;;;;5012744;28;20046;-94
2023/04/23 09:35:15;;;;;;;9.93;3.67;;;16.20;99.90;;;;;;4995914;28;20045;-94
2023/04/23 09:37:47;;;;;;;9.68;4.03;;;16.20;99.90;;;;;;5026657;28;20025;-93
2023/04/23 09:40:17;;;;;;;13.73;4.32;;;16.20;99.90;;;;;;5007400;28;20021;-94
2023/04/23 09:42:55;;;;;;;9.90;3.17;;;16.20;99.90;;;;;;5021665;28;20017;-90
2023/04/23 09:45:23;;;;;;;9.95;2.58;;;16.20;99.90;;;;;;5002898;28;20493;-89
2023/04/23 09:47:54;;;;;;;7.97;3.40;;;16.20;99.90;;;;;;5019125;28;20053;-90
2023/04/23 09:50:46;;;;;;;7.45;2.83;;;16.30;99.90;;;;;;5018703;28;20037;-89
2023/04/23 09:53:42;;;;;;;10.02;3.30;;;16.40;99.90;;;;;;4988736;28;20033;-92
2023/04/23 09:56:08;;;;;;;10.65;3.05;;;16.50;99.90;;;;;;5018113;28;20025;-90
2023/04/23 09:58:33;;;;;;;8.90;2.65;;;16.50;99.90;;;;;;5017968;28;20105;-89
2023/04/23 10:01:09;;;;;;;10.77;2.60;;;16.60;99.90;;;;;;4985793;28;20064;-89
2023/04/23 10:03:45;;;;;;;9.63;2.35;;;16.60;99.90;;;;;;5002617;28;20037;-96
2023/04/23 10:06:14;;;;;;;14.07;3.05;;;16.70;99.90;;;;;;5004844;28;20536;-95
2023/04/23 10:08:40;;;;;;;10.20;2.15;;;16.80;99.90;;;;;;4987147;28;20497;-95
2023/04/23 10:11:06;;;;;;;9.65;2.40;;;16.80;99.90;;;;;;4978353;28;20058;-93
2023/04/23 10:13:35;;;;;;;9.95;2.45;;;16.90;99.90;;;;;;5003800;28;20097;-90
2023/04/23 10:16:03;;;;;;;11.50;2.47;;;17.00;99.90;;;;;;4998793;28;20022;-93
2023/04/23 10:18:30;;;;;;;11.85;2.40;;;17.00;99.90;;;;;;4986389;28;20033;-94
2023/04/23 10:20:57;;;;;;;5.88;2.15;;;17.10;99.90;;;;;;5005588;28;20014;-94
2023/04/23 10:23:24;;;;;;;6.47;2.10;;;17.10;99.90;;;;;;4987612;28;20018;-95
2023/04/23 10:25:53;;;;;;;7.15;2.20;;;17.20;99.90;;;;;;4970308;28;20026;-92
2023/04/23 10:28:27;;;;;;;8.32;2.30;;;17.20;99.90;;;;;;5004410;28;20124;-94
2023/04/23 10:30:55;;;;;;;9.88;2.47;;;17.30;99.90;;;;;;5004293;28;20447;-94
2023/04/23 10:33:22;;;;;;;11.95;2.72;;;17.30;99.90;;;;;;5000972;28;20072;-91
2023/04/23 10:35:48;;;;;;;6.13;1.95;;;17.30;99.90;;;;;;4998324;28;20172;-90
2023/04/23 10:38:15;;;;;;;9.30;2.17;;;17.30;99.90;;;;;;4981455;28;20176;-90
2023/04/23 10:40:45;;;;;;;8.57;1.83;;;17.30;99.90;;;;;;4982551;28;20030;-91
2023/04/23 10:43:11;;;;;;;8.82;2.10;;;17.30;99.90;;;;;;4997856;28;20018;-91
2023/04/23 10:45:38;;;;;;;8.80;2.80;;;17.30;99.90;;;;;;4981592;28;20061;-92
2023/04/23 10:48:04;;;;;;;7.82;2.03;;;17.30;99.90;;;;;;4969769;28;20033;-90
2023/04/23 10:50:35;;;;;;;7.97;2.10;;;17.40;99.90;;;;;;5004075;28;20487;-94
2023/04/23 10:53:01;;;;;;;9.98;2.33;;;17.40;99.90;;;;;;5004942;28;20034;-93
2023/04/23 10:55:29;;;;;;;9.15;1.70;;;17.30;99.90;;;;;;4988046;28;20041;-94
2023/04/23 10:58:06;;;;;;;5.82;1.58;;;17.30;99.90;;;;;;5003875;28;20025;-93
2023/04/23 11:00:44;;;;;;;6.47;1.63;;;17.30;99.10;;;;;;4986463;28;20022;-89
2023/04/23 11:03:38;;;;;;;8.77;1.88;;;17.20;99.90;;;;;;5018839;28;20105;-88
2023/04/23 11:06:05;;;;;;;7.03;1.63;;;17.20;99.90;;;;;;5001285;28;20021;-89
2023/04/23 11:08:34;;;;;;;8.45;1.77;;;17.40;99.90;;;;;;4986397;28;20362;-92
2023/04/23 11:11:05;;;;;;;7.15;1.65;;;17.50;99.90;;;;;;5009226;28;20052;-93
2023/04/23 11:13:30;;;;;;;7.35;2.22;;;17.60;99.90;;;;;;5029064;28;20056;-89
2023/04/23 11:16:43;;;;;;;5.63;1.60;;;17.70;99.90;;;;;;4991002;28;20040;-91
2023/04/23 11:19:14;;;;;;;7.25;2.03;;;17.80;99.60;;;;;;5039817;28;20025;-89
2023/04/23 11:21:59;;;;;;;6.47;1.48;;;17.70;97.00;;;;;;5033481;28;20067;-88
2023/04/23 11:24:36;;;;;;;8.95;1.80;;;17.80;98.60;;;;;;5022427;28;20470;-92
2023/04/23 11:27:06;;;;;;;9.73;2.20;;;17.80;98.40;;;;;;5021742;28;20478;-94
2023/04/23 11:29:31;;;;;;;9.05;1.55;;;17.80;99.50;;;;;;5021927;28;20380;-92
2023/04/23 11:31:57;;;;;;;6.00;1.63;;;17.80;99.90;;;;;;5022179;28;20028;-93
2023/04/23 11:34:24;;;;;;;5.72;1.83;;;17.90;97.80;;;;;;5006074;28;20029;-92
2023/04/23 11:36:53;;;;;;;6.70;1.60;;;17.80;98.30;;;;;;5021783;28;20032;-90
2023/04/23 11:39:20;;;;;;;10.88;2.35;;;17.70;96.90;;;;;;5020936;28;20089;-88
2023/04/23 11:41:46;;;;;;;6.93;1.85;;;17.70;99.70;;;;;;5020141;28;20021;-91
2023/04/23 11:44:12;;;;;;;7.20;1.98;;;17.80;98.00;;;;;;4987956;28;20029;-90
2023/04/23 11:46:38;;;;;;;6.88;1.88;;;17.80;98.40;;;;;;5005300;28;20017;-91
2023/04/23 11:49:05;;;;;;;4.40;1.60;;;17.80;97.50;;;;;;4987619;28;20022;-89
2023/04/23 11:51:31;;;;;;;6.45;1.60;;;17.80;98.10;;;;;;5003571;28;20113;-89
2023/04/23 11:54:02;;;;;;;5.10;1.27;;;17.80;98.40;;;;;;4987155;28;20134;-89
2023/04/23 11:56:31;;;;;;;11.27;1.63;;;17.90;97.70;;;;;;5003311;28;20029;-90
2023/04/23 11:59:00;;;;;;;5.30;1.80;;;17.90;99.60;;;;;;5002860;28;20112;-89
2023/04/23 12:01:25;;;;;;;5.93;1.52;;;17.90;97.20;;;;;;4987739;28;20413;-89
2023/04/23 12:03:51;;;;;;;5.40;1.40;;;17.90;98.50;;;;;;4987309;28;20022;-90
2023/04/23 12:06:18;;;;;;;6.45;1.45;;;17.90;97.80;;;;;;5003538;28;20056;-90
2023/04/23 12:08:46;;;;;;;5.40;1.85;;;17.90;98.00;;;;;;5020056;28;20022;-91
2023/04/23 12:11:12;;;;;;;6.22;1.60;;;17.90;98.40;;;;;;5003244;28;20037;-90
2023/04/23 12:13:40;;;;;;;7.47;1.48;;;17.90;99.30;;;;;;4987105;28;20494;-90
2023/04/23 12:16:06;;;;;;;7.10;1.70;;;18.00;98.40;;;;;;5003920;28;20116;-90
2023/04/23 12:18:41;;;;;;;6.43;1.58;;;17.90;98.90;;;;;;4987512;28;20049;-90
2023/04/23 12:21:12;;;;;;;7.68;2.00;;;17.90;97.20;;;;;;5020152;28;20020;-90
2023/04/23 12:23:39;;;;;;;5.35;1.38;;;17.90;98.00;;;;;;5000845;28;20021;-89
2023/04/23 12:26:10;;;;;;;8.80;1.83;;;17.90;99.40;;;;;;4987114;28;20040;-91
2023/04/23 12:28:51;;;;;;;6.60;1.73;;;18.00;99.90;;;;;;5011796;28;20014;-91
2023/04/23 12:31:27;;;;;;;5.75;1.48;;;17.90;97.40;;;;;;5019796;28;20021;-90
2023/04/23 12:34:08;;;;;;;5.75;1.50;;;18.00;97.90;;;;;;5004949;28;20016;-88
2023/04/23 12:36:55;;;;;;;11.10;1.92;;;17.90;96.50;;;;;;5020310;28;20458;-92
2023/04/23 12:39:25;;;;;;;6.43;1.40;;;17.90;96.90;;;;;;5019887;28;20449;-93
2023/04/23 12:41:58;;;;;;;3.93;1.40;;;17.90;98.20;;;;;;5020807;28;20485;-93
2023/04/23 12:44:23;;;;;;;4.70;1.40;;;18.00;97.40;;;;;;5020800;28;20085;-91
2023/04/23 12:46:57;;;;;;;5.30;1.35;;;18.00;96.50;;;;;;4987483;28;20455;-94